Latest Weather Observations for Dum In Mirrie

IDD60801

Issued at 12:05 pm CST Friday 21 November 2014 (issued every 30 minutes, with the page automatically refreshed every 10 minutes)

About weather observations | Map of weather stations | Latest weather observations for NT | Other Formats
Station Details ID: 014277 Name: DUM IN MIRRIE AIRSTRIP Lat: -12.63 Lon: 130.37 Height: 3.5 m
Data from the previous 72 hours. | See also: Recent months at Dum In Mirrie
Date/Time
CST
Temp
°C
App
Temp
°C
Dew
Point
Rel
Hum
%
Delta-T
°C
Wind Press
QNH
hPa
Press
MSL
hPa
Rain
since 9 am
mm
Dir
 
Spd
km/h
Gust
km/h
Spd
kts
Gust
kts
21/12:00pm 32.8 36.4 23.7 58 6.3 NW 11 17 6 9 1010.4 1010.4 0.0
21/11:30am 33.5 37.0 23.5 55 7.0 NNW 11 20 6 11 1011.0 1011.0 0.0
21/11:00am 34.1 38.3 24.1 56 7.0 N 9 15 5 8 1011.1 1011.1 0.0
21/10:30am 32.0 35.8 23.5 60 5.9 NNW 9 15 5 8 1011.3 1011.3 0.0
21/10:00am 32.2 36.0 23.4 59 6.1 NNW 9 15 5 8 1011.6 1011.6 0.0
21/09:30am 32.3 36.5 24.1 62 5.7 N 9 15 5 8 1011.8 1011.8 0.0
21/09:00am 31.6 36.1 24.0 64 5.3 N 7 13 4 7 1011.7 1011.7 0.0
21/08:30am 31.0 35.5 23.9 66 4.9 NNW 7 11 4 6 1011.5 1011.5 0.0
21/08:00am 30.2 34.5 23.6 67 4.6 N 7 11 4 6 1011.4 1011.4 0.0
21/07:30am 30.3 35.4 24.0 69 4.4 NNE 4 9 2 5 1011.1 1011.1 0.0
21/07:00am 29.0 34.6 24.3 76 3.3 N 2 6 1 3 1010.7 1010.7 0.0
21/06:30am 28.2 33.4 24.2 79 2.8 N 4 6 2 3 1010.3 1010.3 0.0
21/06:00am 27.8 33.2 23.8 79 2.8 NNW 2 4 1 2 1010.0 1010.0 0.0
21/05:30am 28.1 33.6 24.1 79 2.8 NNW 2 4 1 2 1009.6 1009.6 0.0
21/05:00am 28.5 33.8 24.3 78 2.9 NNW 4 7 2 4 1009.3 1009.3 0.0
21/04:30am 28.8 33.7 24.4 77 3.1 N 6 9 3 5 1009.2 1009.2 0.0
21/04:00am 28.8 34.5 24.4 77 3.1 NNW 2 4 1 2 1008.9 1008.9 0.0
21/03:30am 29.0 33.9 24.3 76 3.3 NNW 6 9 3 5 1008.8 1008.8 0.0
21/03:00am 29.0 34.1 24.6 77 3.1 NNW 6 9 3 5 1008.8 1008.8 0.0
21/02:30am 29.1 34.0 24.4 76 3.3 NW 6 7 3 4 1008.9 1008.9 0.0
21/02:00am 29.2 34.1 24.3 75 3.4 NNW 6 11 3 6 1009.0 1009.0 0.0
21/01:30am 29.2 34.2 24.5 76 3.3 NNW 6 11 3 6 1009.1 1009.1 0.0
21/01:00am 29.2 34.2 24.5 76 3.3 NW 6 11 3 6 1009.2 1009.2 0.0
21/12:30am 29.2 34.2 24.5 76 3.3 NW 6 9 3 5 1009.4 1009.4 0.0
21/12:00am 29.4 34.2 24.5 75 3.4 NNW 7 13 4 7 1009.6 1009.6 0.0
 
Date/Time
CST
Temp
°C
App
Temp
°C
Dew
Point
Rel
Hum
%
Delta-T
°C
Wind Press
QNH
hPa
Press
MSL
hPa
Rain
since 9 am
mm
Dir
 
Spd
km/h
Gust
km/h
Spd
kts
Gust
kts
20/11:30pm 29.5 34.3 24.4 74 3.6 NNW 7 15 4 8 1009.7 1009.7 0.0
20/11:00pm 29.6 34.2 24.2 73 3.8 NNW 7 11 4 6 1009.5 1009.5 0.0
20/10:30pm 29.8 34.6 24.2 72 3.9 NNW 6 13 3 7 1009.4 1009.4 0.0
20/10:00pm 30.0 34.3 23.7 69 4.4 NNW 7 9 4 5 1009.3 1009.3 0.0
20/09:30pm 30.1 34.5 23.5 67 4.6 NNW 6 11 3 6 1009.1 1009.1 0.0
20/09:00pm 30.3 34.7 23.5 67 4.7 NW 6 11 3 6 1008.9 1008.9 0.0
20/08:30pm 30.4 34.7 23.3 66 4.9 WNW 6 9 3 5 1008.7 1008.7 0.0
20/08:00pm 30.4 34.7 23.3 66 4.9 W 6 7 3 4 1008.5 1008.5 0.0
20/07:30pm 30.5 34.7 23.2 65 5.0 WNW 6 9 3 5 1008.2 1008.2 0.0
20/07:00pm 30.8 34.8 22.7 62 5.5 WNW 6 11 3 6 1007.8 1007.8 0.0
20/06:30pm 31.3 35.0 22.3 58 6.1 W 6 13 3 7 1007.6 1007.6 0.0
20/06:00pm 32.1 36.0 22.5 57 6.6 W 6 11 3 6 1007.6 1007.6 0.0
20/05:30pm 32.6 36.6 22.7 56 6.8 W 6 13 3 7 1007.6 1007.6 0.0
20/05:00pm 32.7 36.4 22.5 55 7.0 NW 7 13 4 7 1007.4 1007.4 0.0
20/04:30pm 32.7 36.0 22.5 55 7.0 NW 9 15 5 8 1007.4 1007.4 0.0
20/04:00pm 33.1 36.7 23.1 55 6.9 NW 9 17 5 9 1007.6 1007.6 0.0
20/03:30pm 32.9 35.9 22.7 55 7.0 NW 11 17 6 9 1007.9 1007.9 0.0
20/03:00pm 32.9 36.0 23.5 57 6.5 NW 13 17 7 9 1008.1 1008.1 0.0
20/02:30pm 32.5 35.9 23.4 58 6.3 WNW 11 17 6 9 1008.4 1008.4 0.0
20/02:00pm 33.2 37.4 24.1 59 6.4 WNW 9 19 5 10 1009.1 1009.1 0.0
20/01:30pm 32.8 36.6 24.0 60 6.1 WNW 11 19 6 10 1009.6 1009.6 0.0
20/01:00pm 33.5 37.7 24.7 60 6.2 WNW 11 19 6 10 1010.1 1010.1 0.0
20/12:30pm 32.6 36.4 24.1 61 5.9 NW 11 17 6 9 1010.5 1010.5 0.0
20/12:00pm 31.3 35.8 23.9 64 5.1 WNW 7 15 4 8 1011.1 1011.1 0.0
20/11:30am 31.7 36.6 24.6 66 5.0 W 7 13 4 7 1011.4 1011.4 0.0
20/11:00am 32.2 36.9 24.3 63 5.5 W 7 13 4 7 1011.8 1011.8 0.0
20/10:30am 30.9 35.3 23.5 64 5.1 WNW 6 11 3 6 1011.9 1011.9 0.0
20/10:00am 32.2 36.9 24.0 62 5.7 W 6 11 3 6 1012.0 1012.0 0.0
20/09:30am 30.9 34.8 23.0 62 5.4 W 7 9 4 5 1011.9 1011.9 0.0
20/09:00am 31.1 35.9 23.5 64 5.3 WNW 4 9 2 5 1011.8 1011.8 0.0
20/08:30am 30.8 35.0 23.2 64 5.2 WNW 6 9 3 5 1011.6 1011.6 0.0
20/08:00am 30.9 35.7 23.5 64 5.1 WNW 4 7 2 4 1011.1 1011.1 0.0
20/07:30am 30.2 35.1 23.6 67 4.6 NW 4 6 2 3 1010.8 1010.8 0.0
20/07:00am 28.9 34.6 23.8 74 3.5 CALM 0 2 0 1 1010.4 1010.4 0.0
20/06:30am 26.8 31.9 22.6 78 2.8 CALM 0 0 0 0 1010.0 1010.0 0.0
20/06:00am 26.9 31.7 22.1 75 3.2 CALM 0 0 0 0 1009.6 1009.6 0.0
20/05:30am 28.1 32.4 22.6 72 3.7 NW 4 6 2 3 1009.3 1009.3 0.0
20/05:00am 28.7 33.0 22.7 70 4.1 NW 4 7 2 4 1008.9 1008.9 0.0
20/04:30am 29.0 33.1 23.0 70 4.1 WNW 6 9 3 5 1008.8 1008.8 0.0
20/04:00am 29.1 33.3 23.1 70 4.1 W 6 11 3 6 1008.7 1008.7 0.0
20/03:30am 29.1 33.7 23.1 70 4.1 WNW 4 9 2 5 1008.8 1008.8 0.0
20/03:00am 29.2 33.3 22.9 69 4.3 WNW 6 9 3 5 1008.9 1008.9 0.0
20/02:30am 29.1 33.7 23.1 70 4.1 WNW 4 9 2 5 1009.1 1009.1 0.0
20/02:00am 29.3 33.4 23.0 69 4.3 WNW 6 11 3 6 1009.4 1009.4 0.0
20/01:30am 29.5 33.6 23.0 68 4.5 WNW 6 11 3 6 1009.7 1009.7 0.0
20/01:00am 29.5 33.6 23.0 68 4.4 WNW 6 13 3 7 1010.0 1010.0 0.0
20/12:30am 29.4 33.5 22.9 68 4.4 NW 6 11 3 6 1009.9 1009.9 0.0
20/12:00am 29.5 33.3 22.7 67 4.6 WNW 7 11 4 6 1010.2 1010.2 0.0
 
Date/Time
CST
Temp
°C
App
Temp
°C
Dew
Point
Rel
Hum
%
Delta-T
°C
Wind Press
QNH
hPa
Press
MSL
hPa
Rain
since 9 am
mm
Dir
 
Spd
km/h
Gust
km/h
Spd
kts
Gust
kts
19/11:30pm 29.1 32.9 22.8 69 4.3 NW 7 15 4 8 1010.5 1010.5 0.0
19/11:00pm 28.2 33.0 22.2 70 4.0 CALM 0 0 0 0 1011.3 1011.3 0.0
19/10:30pm 29.0 33.3 22.0 66 4.7 NNW 2 4 1 2 1011.1 1011.1 0.0
19/10:00pm 29.6 33.5 22.6 66 4.8 NW 6 9 3 5 1010.6 1010.6 0.0
19/09:30pm 29.8 33.7 22.5 65 5.0 WNW 6 7 3 4 1010.3 1010.3 0.0
19/09:00pm 29.8 33.5 22.3 64 5.1 WNW 6 11 3 6 1009.6 1009.6 0.0
19/08:30pm 29.7 34.0 22.7 66 4.8 NW 4 6 2 3 1009.3 1009.3 0.0
19/08:00pm 29.8 33.9 23.0 67 4.7 W 6 11 3 6 1009.1 1009.1 0.0
19/07:30pm 30.0 34.3 23.7 69 4.4 W 7 15 4 8 1009.0 1009.0 0.0
19/07:00pm 30.1 34.5 23.5 67 4.6 W 6 11 3 6 1008.8 1008.8 0.0
19/06:30pm 30.9 35.7 23.5 64 5.1 W 4 7 2 4 1008.6 1008.6 0.0
19/06:00pm 31.3 35.8 23.9 64 5.1 W 7 13 4 7 1008.5 1008.5 0.0
19/05:30pm 31.5 35.6 23.9 64 5.3 W 9 17 5 9 1008.4 1008.4 0.0
19/05:00pm 31.9 35.7 24.0 63 5.5 W 11 17 6 9 1008.4 1008.4 0.0
19/04:30pm 32.4 36.5 23.9 61 5.9 W 9 15 5 8 1008.4 1008.4 0.0
19/04:00pm 32.6 36.4 24.1 61 5.9 WNW 11 19 6 10 1008.8 1008.8 0.0
19/03:30pm 33.0 36.9 24.2 60 6.2 NW 11 19 6 10 1009.1 1009.1 0.0
19/03:00pm 32.5 35.9 24.0 61 5.9 NNW 13 20 7 11 1009.5 1009.5 0.0
19/02:30pm 32.1 35.0 23.9 62 5.7 N 15 24 8 13 1009.6 1009.6 0.0
19/02:00pm 32.2 35.2 24.0 62 5.7 N 15 24 8 13 1010.0 1010.0 0.0
19/01:30pm 32.7 35.8 24.2 61 6.0 N 15 20 8 11 1010.5 1010.5 0.0
19/01:00pm 32.2 35.2 24.0 62 5.7 N 15 24 8 13 1010.9 1010.9 0.0
19/12:30pm 32.9 36.1 24.4 61 6.0 N 15 24 8 13 1011.2 1011.2 0.0
19/12:00pm 32.8 36.0 23.7 58 6.3 N 13 24 7 13 1011.6 1011.6 0.0
19/11:30am 31.9 35.3 23.4 60 5.9 NNW 11 19 6 10 1012.1 1012.1 0.0
19/11:00am 33.6 37.2 23.0 54 7.3 N 9 15 5 8 1012.3 1012.3 0.0
19/10:30am 32.5 36.8 23.7 59 6.1 WSW 7 11 4 6 1012.8 1012.8 0.0
19/10:00am 32.4 36.6 23.4 59 6.2 W 7 13 4 7 1013.3 1013.3 0.0
19/09:30am 32.8 36.9 22.9 56 6.8 SE 6 11 3 6 1013.5 1013.5 0.0
19/09:00am 32.4 36.8 23.4 59 6.2 E 6 11 3 6 1013.3 1013.3 0.0
19/08:30am 31.3 35.5 23.4 63 5.5 E 7 11 4 6 1013.0 1013.0 0.0
19/08:00am 31.2 36.1 23.6 64 5.3 E 4 6 2 3 1012.4 1012.4 0.0
19/07:30am 30.1 36.1 24.3 71 4.0 CALM 0 4 0 2 1012.0 1012.0 0.0
19/07:00am 28.6 34.4 24.6 79 2.8 ESE 2 4 1 2 1011.5 1011.5 0.0
19/06:30am 26.7 31.3 22.5 78 2.8 WSW 2 4 1 2 1011.0 1011.0 0.0
19/06:00am 27.6 32.0 22.1 72 3.7 W 2 4 1 2 1010.6 1010.6 0.0
19/05:30am 28.6 33.0 22.8 71 4.0 WSW 4 6 2 3 1010.3 1010.3 0.0
19/05:00am 28.7 33.0 22.7 70 4.1 W 4 7 2 4 1010.2 1010.2 0.0
19/04:30am 29.1 33.3 23.1 70 4.1 W 6 9 3 5 1009.8 1009.8 0.0
19/04:00am 28.8 32.8 22.8 70 4.1 W 6 7 3 4 1009.6 1009.6 0.0
19/03:30am 28.6 32.7 22.3 68 4.3 WNW 4 7 2 4 1009.6 1009.6 0.0
19/03:00am 27.8 32.0 22.5 73 3.6 WNW 4 7 2 4 1009.5 1009.5 0.0
19/02:30am 26.6 30.6 22.0 76 3.1 WNW 4 6 2 3 1009.7 1009.7 0.0
19/02:00am 27.9 32.3 22.8 74 3.5 W 4 7 2 4 1010.1 1010.1 0.0
19/01:30am 28.1 32.6 22.3 70 3.9 WNW 2 4 1 2 1010.4 1010.4 0.0
19/01:00am 29.0 33.6 22.5 68 4.4 WNW 2 6 1 3 1010.8 1010.8 0.0
19/12:30am 29.3 34.0 23.3 70 4.1 WNW 4 7 2 4 1011.1 1011.1 0.0
19/12:00am 29.4 33.5 22.9 68 4.4 W 6 7 3 4 1011.2 1011.2 0.0
 
Date/Time
CST
Temp
°C
App
Temp
°C
Dew
Point
Rel
Hum
%
Delta-T
°C
Wind Press
QNH
hPa
Press
MSL
hPa
Rain
since 9 am
mm
Dir
 
Spd
km/h
Gust
km/h
Spd
kts
Gust
kts
18/11:30pm 29.7 33.9 23.2 68 4.5 W 6 11 3 6 1011.6 1011.6 0.0
18/11:00pm 29.6 33.8 23.1 68 4.5 W 6 9 3 5 1011.5 1011.5 0.0
18/10:30pm 29.7 33.9 23.2 68 4.5 W 6 11 3 6 1011.4 1011.4 0.0
18/10:00pm 29.7 33.9 23.4 69 4.3 W 7 13 4 7 1011.3 1011.3 0.0
18/09:30pm 29.8 33.9 23.3 68 4.5 W 7 13 4 7 1011.2 1011.2 0.0
18/09:00pm 30.0 34.1 23.9 70 4.2 W 9 17 5 9 1010.9 1010.9 0.0
18/08:30pm 29.9 33.6 23.3 67 4.5 W 9 15 5 8 1010.7 1010.7 0.0
18/08:00pm 29.9 33.5 23.1 67 4.7 W 9 15 5 8 1010.5 1010.5 0.0
18/07:30pm 30.0 34.1 23.2 67 4.7 W 7 13 4 7 1010.4 1010.4 0.0
18/07:00pm 30.0 34.1 23.2 67 4.7 W 7 13 4 7 1010.1 1010.1 0.0
18/06:30pm 30.6 34.4 23.5 66 4.9 W 9 15 5 8 1009.8 1009.8 0.0
18/06:00pm 31.5 35.1 23.1 61 5.8 WNW 9 15 5 8 1009.6 1009.6 0.0
18/05:30pm 31.9 35.6 23.2 60 6.0 WNW 9 17 5 9 1009.1 1009.1 0.0
18/05:00pm 32.5 36.5 23.7 59 6.1 W 9 17 5 9 1009.1 1009.1 0.0
18/04:30pm 32.1 35.5 23.3 59 6.1 W 11 17 6 9 1009.1 1009.1 0.0
18/04:00pm 32.8 36.8 23.7 58 6.3 W 9 19 5 10 1009.0 1009.0 0.0
18/03:30pm 32.6 36.4 23.5 58 6.3 WNW 9 17 5 9 1009.0 1009.0 0.0
18/03:00pm 32.7 36.4 23.9 60 6.1 WNW 11 20 6 11 1009.1 1009.1 0.0
18/02:30pm 33.0 36.7 23.9 59 6.4 WNW 11 19 6 10 1009.4 1009.4 0.0
18/02:00pm 32.5 36.6 24.0 61 5.9 WNW 9 15 5 8 1010.0 1010.0 0.0
18/01:30pm 32.3 35.9 23.8 61 5.9 WNW 11 17 6 9 1010.3 1010.3 0.0
18/01:00pm 32.7 36.4 23.9 60 6.1 WNW 11 19 6 10 1010.8 1010.8 0.0
18/12:30pm 32.1 35.8 23.9 62 5.7 W 11 19 6 10 1011.0 1011.0 0.0

Other Formats:

Comma delimited format used in spreadsheet applications
http://www.bom.gov.au/fwo/IDD60801/IDD60801.94116.axf

JavaScript Object Notation format (JSON) in row-major order
http://www.bom.gov.au/fwo/IDD60801/IDD60801.94116.json